createdAt,value
2022-08-18T00:00:20.019Z,2.83
2022-08-18T00:02:30.074Z,2.93
2022-08-18T00:04:43.396Z,2.70
2022-08-18T00:06:51.959Z,2.90
2022-08-18T00:08:54.732Z,2.90
2022-08-18T00:10:58.537Z,2.90
2022-08-18T00:13:01.530Z,2.80
2022-08-18T00:15:06.032Z,3.10
2022-08-18T00:17:08.978Z,2.80
2022-08-18T00:19:13.157Z,3.07
2022-08-18T00:21:15.901Z,3.00
2022-08-18T00:23:19.152Z,2.70
2022-08-18T00:25:22.322Z,3.10
2022-08-18T00:27:28.777Z,2.93
2022-08-18T00:29:31.794Z,3.27
2022-08-18T00:31:34.535Z,3.03
2022-08-18T00:33:37.322Z,4.17
2022-08-18T00:35:41.474Z,3.33
2022-08-18T00:37:44.544Z,3.10
2022-08-18T00:39:48.010Z,3.13
2022-08-18T00:41:51.078Z,3.17
2022-08-18T00:43:56.276Z,3.30
2022-08-18T00:45:59.316Z,3.27
2022-08-18T00:48:02.217Z,3.07
2022-08-18T00:50:06.306Z,3.37
2022-08-18T00:52:18.492Z,3.10
2022-08-18T00:54:24.859Z,3.70
2022-08-18T00:56:33.704Z,3.70
2022-08-18T00:58:39.738Z,3.47
2022-08-18T01:00:42.630Z,3.20
2022-08-18T01:02:52.607Z,3.57
2022-08-18T01:05:00.391Z,3.67
2022-08-18T01:07:09.317Z,3.60
2022-08-18T01:09:13.547Z,3.50
2022-08-18T01:11:16.403Z,3.53
2022-08-18T01:13:19.317Z,3.50
2022-08-18T01:15:28.685Z,3.80
2022-08-18T01:17:58.720Z,3.67
2022-08-18T01:20:31.197Z,4.03
2022-08-18T01:22:44.243Z,4.00
2022-08-18T01:25:04.974Z,4.30
2022-08-18T01:27:07.745Z,4.20
2022-08-18T01:29:11.834Z,4.47
2022-08-18T01:31:37.818Z,4.20
2022-08-18T01:33:44.651Z,3.80
2022-08-18T01:35:50.157Z,3.90
2022-08-18T01:37:53.858Z,4.20
2022-08-18T01:41:01.001Z,3.90
2022-08-18T01:42:20.644Z,4.10
2022-08-18T01:44:23.451Z,4.43
2022-08-18T01:46:27.051Z,3.87
2022-08-18T01:48:33.007Z,4.40
2022-08-18T01:50:39.724Z,4.23
2022-08-18T01:52:42.513Z,3.90
2022-08-18T01:54:45.282Z,3.90
2022-08-18T01:56:49.471Z,4.20
2022-08-18T01:58:52.221Z,4.50
2022-08-18T02:01:01.780Z,4.40
2022-08-18T02:03:08.295Z,4.50
2022-08-18T02:05:13.713Z,4.70
2022-08-18T02:07:18.633Z,4.30
2022-08-18T02:09:23.680Z,4.80
2022-08-18T02:11:27.143Z,4.63
2022-08-18T02:13:31.732Z,5.03
2022-08-18T02:15:34.614Z,5.27
2022-08-18T02:17:38.790Z,4.90
2022-08-18T02:19:44.865Z,4.80
2022-08-18T02:21:47.652Z,4.70
2022-08-18T02:23:53.015Z,4.90
2022-08-18T02:25:56.747Z,4.70
2022-08-18T02:27:59.478Z,4.80
2022-08-18T02:30:06.546Z,4.73
2022-08-18T02:32:09.662Z,4.70
2022-08-18T02:34:12.390Z,5.17
2022-08-18T02:36:15.301Z,5.13
2022-08-18T02:38:18.014Z,4.80
2022-08-18T02:40:21.115Z,4.87
2022-08-18T02:42:23.915Z,5.03
2022-08-18T02:44:26.696Z,5.10
2022-08-18T02:46:31.236Z,5.07
2022-08-18T02:48:35.278Z,5.57
2022-08-18T02:50:45.764Z,5.60
2022-08-18T02:52:48.619Z,5.70
2022-08-18T02:54:52.093Z,5.87
2022-08-18T02:56:57.109Z,5.60
2022-08-18T02:59:01.621Z,5.77
2022-08-18T03:01:04.459Z,5.87
2022-08-18T03:03:08.661Z,6.23
2022-08-18T03:05:14.675Z,6.10
2022-08-18T03:07:17.955Z,7.03
2022-08-18T03:09:21.700Z,6.97
2022-08-18T03:11:26.315Z,7.30
2022-08-18T03:13:30.301Z,7.30
2022-08-18T03:15:33.675Z,7.20
2022-08-18T03:17:37.855Z,7.73
2022-08-18T03:19:43.913Z,7.63
2022-08-18T03:21:49.707Z,8.57
2022-08-18T03:24:00.695Z,8.30
2022-08-18T03:26:04.447Z,8.10
2022-08-18T03:28:07.627Z,8.30
2022-08-18T03:30:11.677Z,9.03
2022-08-18T03:32:14.788Z,9.53
2022-08-18T03:34:20.461Z,9.90
2022-08-18T03:36:27.864Z,10.43
2022-08-18T03:38:30.636Z,10.07
2022-08-18T03:40:33.427Z,10.57
2022-08-18T03:42:36.166Z,11.23
2022-08-18T03:44:38.989Z,11.83
2022-08-18T03:46:42.866Z,13.73
2022-08-18T03:48:47.270Z,12.70
2022-08-18T03:50:49.994Z,13.10
2022-08-18T03:52:54.331Z,13.60
2022-08-18T03:54:57.077Z,14.27
2022-08-18T03:57:00.359Z,14.50
2022-08-18T03:59:07.812Z,13.70
2022-08-18T04:01:11.702Z,14.83
2022-08-18T04:03:14.504Z,15.33
2022-08-18T04:05:17.333Z,14.00
2022-08-18T04:07:20.070Z,13.57
2022-08-18T04:09:27.651Z,13.00
2022-08-18T04:11:35.697Z,14.13
2022-08-18T04:13:40.205Z,13.53
2022-08-18T04:15:42.924Z,15.20
2022-08-18T04:17:55.957Z,13.83
2022-08-18T04:20:06.674Z,15.03
2022-08-18T04:22:17.478Z,16.50
2022-08-18T04:24:21.575Z,18.47
2022-08-18T04:26:25.842Z,18.70
2022-08-18T04:28:29.591Z,19.80
2022-08-18T04:30:32.393Z,19.63
2022-08-18T04:32:35.185Z,19.30
2022-08-18T04:34:37.932Z,21.13
2022-08-18T04:36:42.067Z,21.60
2022-08-18T04:38:45.475Z,22.83
2022-08-18T04:40:48.496Z,21.10
2022-08-18T04:42:52.602Z,20.97
2022-08-18T04:44:55.360Z,21.10
2022-08-18T04:46:58.103Z,20.03
2022-08-18T04:49:00.851Z,20.80
2022-08-18T04:51:08.623Z,23.90
2022-08-18T04:53:29.125Z,27.27
2022-08-18T04:55:31.872Z,27.13
2022-08-18T04:57:35.128Z,26.20
2022-08-18T04:59:41.347Z,26.27
2022-08-18T05:01:46.352Z,25.37
2022-08-18T05:03:50.578Z,26.50
2022-08-18T05:05:53.636Z,26.83
2022-08-18T05:07:56.423Z,27.60
2022-08-18T05:09:59.660Z,28.37
2022-08-18T05:12:02.929Z,24.93
2022-08-18T05:14:07.431Z,26.30
2022-08-18T05:16:16.869Z,26.63
2022-08-18T05:18:24.310Z,29.83
2022-08-18T05:20:29.490Z,27.57
2022-08-18T05:22:38.145Z,29.00
2022-08-18T05:24:41.126Z,29.40
2022-08-18T05:26:44.512Z,29.17
2022-08-18T05:28:47.870Z,29.97
2022-08-18T05:30:50.743Z,29.73
2022-08-18T05:32:55.518Z,30.70
2022-08-18T05:34:59.697Z,31.23
2022-08-18T05:37:14.595Z,31.83
2022-08-18T05:39:23.423Z,31.20
2022-08-18T05:41:29.932Z,32.17
2022-08-18T05:43:33.236Z,34.30
2022-08-18T05:45:36.674Z,31.00
2022-08-18T05:47:40.115Z,30.27
2022-08-18T05:49:48.066Z,34.07
2022-08-18T05:51:53.097Z,34.97
2022-08-18T05:54:13.764Z,36.80
2022-08-18T05:56:41.730Z,34.57
2022-08-18T05:58:50.413Z,33.87
2022-08-18T06:00:59.709Z,35.27
2022-08-18T06:03:09.555Z,36.90
2022-08-18T06:05:17.133Z,34.20
2022-08-18T06:07:33.587Z,35.03
2022-08-18T06:09:43.456Z,35.83
2022-08-18T06:11:47.205Z,38.13
2022-08-18T06:13:54.245Z,35.13
2022-08-18T06:16:09.889Z,31.33
2022-08-18T06:18:38.372Z,31.70
2022-08-18T06:20:56.722Z,34.93
2022-08-18T06:23:12.001Z,32.47
2022-08-18T06:25:19.149Z,34.47
2022-08-18T06:27:29.761Z,35.70
2022-08-18T06:29:52.634Z,34.33
2022-08-18T06:32:03.491Z,31.83
2022-08-18T06:34:16.341Z,34.43
2022-08-18T06:36:33.086Z,33.93
2022-08-18T06:38:45.992Z,32.77
2022-08-18T06:40:49.117Z,35.80
2022-08-18T06:42:51.842Z,32.97
2022-08-18T06:44:59.329Z,35.33
2022-08-18T06:47:10.108Z,31.03
2022-08-18T06:49:22.567Z,31.30
2022-08-18T06:51:29.280Z,32.22
2022-08-18T06:53:53.106Z,33.10
2022-08-18T06:55:56.244Z,35.17
2022-08-18T06:58:00.737Z,34.70
2022-08-18T07:00:11.294Z,35.30
2022-08-18T07:02:23.529Z,35.33
2022-08-18T07:04:44.045Z,34.93
2022-08-18T07:06:48.112Z,34.10
2022-08-18T07:08:52.422Z,36.20
2022-08-18T07:10:55.217Z,34.43
2022-08-18T07:13:09.032Z,38.17
2022-08-18T07:15:14.428Z,38.10
2022-08-18T07:17:43.699Z,34.43
2022-08-18T07:19:56.703Z,37.08
2022-08-18T07:22:06.580Z,35.90
2022-08-18T07:24:24.698Z,35.83
2022-08-18T07:26:27.800Z,35.90
2022-08-18T07:28:36.694Z,34.50
2022-08-18T07:30:47.062Z,36.23
2022-08-18T07:33:03.231Z,36.33
2022-08-18T07:35:09.544Z,35.00
2022-08-18T07:37:18.023Z,33.63
2022-08-18T07:39:26.984Z,34.72
2022-08-18T07:41:36.435Z,37.60
2022-08-18T07:43:44.426Z,32.30
2022-08-18T07:45:48.466Z,33.55
2022-08-18T07:47:55.878Z,34.60
2022-08-18T07:50:23.072Z,38.47
2022-08-18T07:52:36.555Z,35.53
2022-08-18T07:55:00.150Z,34.50
2022-08-18T07:57:09.950Z,36.13
2022-08-18T07:59:20.009Z,36.30
2022-08-18T08:01:30.188Z,38.45
2022-08-18T08:03:51.695Z,36.67
2022-08-18T08:06:05.086Z,36.97
2022-08-18T08:08:19.734Z,33.80
2022-08-18T08:10:36.888Z,37.95
2022-08-18T08:12:45.953Z,37.70
2022-08-18T08:14:52.046Z,37.20
2022-08-18T08:17:04.803Z,37.13
2022-08-18T08:19:42.411Z,34.10
2022-08-18T08:21:52.845Z,35.95
2022-08-18T08:24:08.259Z,36.05
2022-08-18T08:26:25.402Z,35.25
2022-08-18T08:28:38.294Z,33.90
2022-08-18T08:30:50.063Z,34.63
2022-08-18T08:33:04.370Z,35.15
2022-08-18T08:35:47.135Z,37.83
2022-08-18T08:37:41.804Z,40.28
2022-08-18T08:39:50.911Z,36.80
2022-08-18T08:42:29.334Z,38.30
2022-08-18T08:44:27.188Z,37.80
2022-08-18T08:46:35.636Z,40.10
2022-08-18T08:48:44.354Z,39.33
2022-08-18T08:50:54.358Z,38.72
2022-08-18T08:53:01.875Z,36.75
2022-08-18T08:55:13.662Z,36.30
2022-08-18T08:57:18.951Z,37.37
2022-08-18T08:59:25.068Z,38.77
2022-08-18T09:01:35.207Z,40.95
2022-08-18T09:03:46.258Z,40.53
2022-08-18T09:05:58.259Z,39.45
2022-08-18T09:08:33.944Z,38.85
2022-08-18T09:11:11.718Z,36.28
2022-08-18T09:13:44.232Z,34.70
2022-08-18T09:16:12.243Z,35.45
2022-08-18T09:18:36.364Z,37.25
2022-08-18T09:20:52.637Z,35.75
2022-08-18T09:23:03.641Z,35.25
2022-08-18T09:25:12.926Z,33.92
2022-08-18T09:27:37.000Z,35.10
2022-08-18T09:29:51.839Z,34.47
2022-08-18T09:32:32.558Z,34.38
2022-08-18T09:34:49.420Z,33.83
2022-08-18T09:37:04.016Z,32.03
2022-08-18T09:39:38.876Z,32.22
2022-08-18T09:41:51.840Z,34.45
2022-08-18T09:44:17.866Z,34.85
2022-08-18T09:46:51.837Z,32.88
2022-08-18T09:49:32.535Z,32.42
2022-08-18T09:51:42.182Z,31.73
2022-08-18T09:54:14.690Z,30.83
2022-08-18T09:56:56.713Z,31.73
2022-08-18T09:59:02.955Z,31.83
2022-08-18T10:01:34.158Z,33.90
2022-08-18T10:03:38.963Z,35.45
2022-08-18T10:05:56.909Z,40.33
2022-08-18T10:08:31.240Z,37.65
2022-08-18T10:10:59.090Z,41.95
2022-08-18T10:13:14.966Z,43.58
2022-08-18T10:15:33.776Z,41.25
2022-08-18T10:17:49.992Z,43.28
2022-08-18T10:19:58.853Z,44.90
2022-08-18T10:22:08.045Z,42.05
2022-08-18T10:24:36.953Z,42.45
2022-08-18T10:27:09.716Z,45.35
2022-08-18T10:29:51.035Z,45.42
2022-08-18T10:32:23.570Z,43.75
2022-08-18T10:34:40.649Z,45.55
2022-08-18T10:36:58.972Z,47.15
2022-08-18T10:39:06.852Z,48.05
2022-08-18T10:41:21.109Z,43.50
2022-08-18T10:43:55.128Z,48.97
2022-08-18T10:46:24.359Z,48.13
2022-08-18T10:48:24.386Z,48.83
2022-08-18T10:50:31.739Z,55.80
2022-08-18T10:53:17.137Z,54.87
2022-08-18T10:55:48.187Z,51.67
2022-08-18T10:58:30.382Z,49.30
2022-08-18T11:00:48.323Z,48.30
2022-08-18T11:05:31.846Z,51.83
2022-08-18T11:07:39.575Z,54.57
2022-08-18T11:09:50.623Z,54.07
2022-08-18T11:14:31.510Z,52.50
2022-08-18T11:16:55.712Z,53.50
2022-08-18T11:19:06.920Z,51.63
2022-08-18T11:21:42.185Z,52.28
2022-08-18T11:23:45.620Z,49.13
2022-08-18T11:25:49.607Z,55.00
2022-08-18T11:27:53.059Z,52.65
2022-08-18T11:29:59.858Z,55.00
2022-08-18T11:32:10.985Z,51.40
2022-08-18T11:34:18.519Z,53.45
2022-08-18T11:36:31.552Z,50.53
2022-08-18T11:38:39.468Z,53.88
2022-08-18T11:41:10.820Z,51.20
2022-08-18T11:43:15.354Z,51.47
2022-08-18T11:45:24.563Z,58.10
2022-08-18T11:47:30.045Z,51.13
2022-08-18T11:49:34.486Z,51.08
2022-08-18T11:51:40.586Z,55.72
2022-08-18T11:53:59.312Z,54.47
2022-08-18T11:56:13.441Z,50.63
2022-08-18T11:58:41.891Z,52.07
2022-08-18T12:01:01.585Z,52.35
2022-08-18T12:03:09.130Z,52.87
2022-08-18T12:05:12.221Z,53.37
2022-08-18T12:07:20.612Z,52.95
2022-08-18T12:10:16.010Z,53.83
2022-08-18T12:12:14.544Z,55.17
2022-08-18T12:14:32.521Z,50.63
2022-08-18T12:16:41.403Z,52.67
2022-08-18T12:18:49.390Z,54.17
2022-08-18T12:20:56.612Z,56.90
2022-08-18T12:23:00.285Z,55.73
2022-08-18T12:27:32.323Z,55.22
2022-08-18T12:31:58.034Z,56.03
2022-08-18T12:34:01.454Z,52.85
2022-08-18T12:36:05.315Z,50.78
2022-08-18T12:38:13.192Z,51.08
2022-08-18T12:40:20.514Z,51.53
2022-08-18T12:42:23.459Z,49.10
2022-08-18T12:44:27.128Z,52.17
2022-08-18T12:46:31.477Z,52.95
2022-08-18T12:48:34.732Z,49.22
2022-08-18T12:50:49.805Z,50.83
2022-08-18T12:53:00.767Z,48.33
2022-08-18T12:55:08.609Z,50.92
2022-08-18T12:57:33.349Z,53.10
2022-08-18T12:59:52.063Z,50.13
2022-08-18T13:01:58.444Z,49.03
2022-08-18T13:04:13.149Z,52.72
2022-08-18T13:06:16.891Z,50.33
2022-08-18T13:08:30.188Z,54.10
2022-08-18T13:10:45.667Z,51.25
2022-08-18T13:12:52.958Z,49.58
2022-08-18T13:14:58.236Z,48.33
2022-08-18T13:17:01.112Z,47.72
2022-08-18T13:19:06.097Z,47.78
2022-08-18T13:21:10.144Z,47.38
2022-08-18T13:23:13.080Z,48.60
2022-08-18T13:25:32.509Z,46.78
2022-08-18T13:27:43.609Z,49.05
2022-08-18T13:29:50.981Z,44.65
2022-08-18T13:31:58.075Z,47.38
2022-08-18T13:34:03.984Z,45.97
2022-08-18T13:36:07.877Z,44.20
2022-08-18T13:38:14.573Z,47.53
2022-08-18T13:40:23.915Z,44.33
2022-08-18T13:42:50.405Z,44.25
2022-08-18T13:44:57.054Z,46.28
2022-08-18T13:46:59.915Z,44.00
2022-08-18T13:49:04.171Z,42.22
2022-08-18T13:51:09.807Z,42.40
2022-08-18T13:53:19.382Z,41.55
2022-08-18T13:55:29.011Z,40.65
2022-08-18T13:57:32.380Z,40.13
2022-08-18T13:59:35.161Z,41.30
2022-08-18T14:01:44.973Z,39.50
2022-08-18T14:03:56.072Z,38.33
2022-08-18T14:06:01.618Z,40.17
2022-08-18T14:08:06.079Z,42.33
2022-08-18T14:10:10.775Z,41.80
2022-08-18T14:12:23.131Z,39.95
2022-08-18T14:14:27.806Z,40.85
2022-08-18T14:16:31.196Z,41.15
2022-08-18T14:18:35.360Z,40.30
2022-08-18T14:20:55.960Z,39.70
2022-08-18T14:23:21.465Z,43.22
2022-08-18T14:25:56.571Z,38.42
2022-08-18T14:28:03.831Z,38.75
2022-08-18T14:30:10.460Z,40.05
2022-08-18T14:32:17.826Z,36.38
2022-08-18T14:34:28.540Z,40.13
2022-08-18T14:36:38.654Z,39.92
2022-08-18T14:38:43.430Z,39.75
2022-08-18T14:40:48.705Z,39.33
2022-08-18T14:42:54.099Z,38.85
2022-08-18T14:45:03.747Z,38.95
2022-08-18T14:47:24.470Z,38.53
2022-08-18T14:49:31.354Z,40.10
2022-08-18T14:51:34.116Z,38.70
2022-08-18T14:53:37.236Z,38.97
2022-08-18T14:55:40.414Z,41.30
2022-08-18T14:57:43.294Z,38.83
2022-08-18T14:59:48.040Z,40.75
2022-08-18T15:01:53.620Z,37.35
2022-08-18T15:03:56.565Z,40.20
2022-08-18T15:06:04.894Z,39.30
2022-08-18T15:08:08.982Z,40.92
2022-08-18T15:10:16.654Z,41.85
2022-08-18T15:12:24.545Z,41.50
2022-08-18T15:14:33.166Z,38.10
2022-08-18T15:16:38.533Z,39.15
2022-08-18T15:18:43.548Z,37.30
2022-08-18T15:21:04.264Z,40.03
2022-08-18T15:23:32.354Z,40.95
2022-08-18T15:25:44.743Z,37.10
2022-08-18T15:27:47.662Z,37.75
2022-08-18T15:29:55.781Z,39.92
2022-08-18T15:32:02.265Z,38.70
2022-08-18T15:34:09.889Z,35.60
2022-08-18T15:36:21.396Z,37.65
2022-08-18T15:38:33.134Z,34.38
2022-08-18T15:40:41.379Z,37.30
2022-08-18T15:42:50.019Z,38.27
2022-08-18T15:44:53.718Z,38.75
2022-08-18T15:46:56.868Z,36.28
2022-08-18T15:48:59.629Z,38.05
2022-08-18T15:51:11.637Z,36.33
2022-08-18T15:53:16.609Z,38.55
2022-08-18T15:55:23.032Z,35.50
2022-08-18T15:57:39.031Z,36.60
2022-08-18T15:59:43.024Z,35.53
2022-08-18T16:01:49.590Z,38.00
2022-08-18T16:03:55.024Z,36.00
2022-08-18T16:05:57.815Z,37.03
2022-08-18T16:08:01.202Z,37.90
2022-08-18T16:10:05.721Z,36.47
2022-08-18T16:12:11.123Z,36.95
2022-08-18T16:14:13.963Z,33.85
2022-08-18T16:16:28.841Z,33.50
2022-08-18T16:18:36.556Z,32.73
2022-08-18T16:20:39.626Z,32.88
2022-08-18T16:22:43.503Z,33.97
2022-08-18T16:24:46.333Z,34.22
2022-08-18T16:26:57.788Z,33.28
2022-08-18T16:29:02.162Z,34.63
2022-08-18T16:31:06.098Z,32.55
2022-08-18T16:33:09.565Z,33.15
2022-08-18T16:35:12.459Z,34.03
2022-08-18T16:39:23.763Z,31.45
2022-08-18T16:41:27.071Z,35.22
2022-08-18T16:43:30.195Z,34.55
2022-08-18T16:45:36.124Z,34.15
2022-08-18T16:47:40.461Z,32.88
2022-08-18T16:49:45.365Z,31.27
2022-08-18T16:51:48.256Z,31.27
2022-08-18T16:53:53.426Z,33.70
2022-08-18T16:55:56.472Z,30.92
2022-08-18T16:58:17.076Z,29.17
2022-08-18T17:00:37.760Z,30.63
2022-08-18T17:02:59.388Z,31.38
2022-08-18T17:05:03.137Z,29.90
2022-08-18T17:07:07.118Z,29.13
2022-08-18T17:09:12.668Z,30.90
2022-08-18T17:11:18.329Z,30.30
2022-08-18T17:13:21.201Z,29.33
2022-08-18T17:15:23.974Z,28.13
2022-08-18T17:17:26.849Z,29.95
2022-08-18T17:19:34.264Z,27.95
2022-08-18T17:21:37.622Z,28.65
2022-08-18T17:23:40.667Z,30.03
2022-08-18T17:25:44.195Z,29.63
2022-08-18T17:27:50.302Z,28.63
2022-08-18T17:30:04.102Z,29.60
2022-08-18T17:32:11.556Z,33.78
2022-08-18T17:34:16.091Z,31.03
2022-08-18T17:36:25.344Z,31.92
2022-08-18T17:38:34.207Z,30.95
2022-08-18T17:40:43.625Z,32.35
2022-08-18T17:42:51.705Z,32.42
2022-08-18T17:44:59.124Z,33.57
2022-08-18T17:47:04.518Z,34.23
2022-08-18T17:49:13.122Z,32.97
2022-08-18T17:51:37.649Z,32.00
2022-08-18T17:53:47.370Z,31.17
2022-08-18T17:55:53.352Z,33.08
2022-08-18T17:58:02.572Z,33.50
2022-08-18T18:00:09.794Z,35.25
2022-08-18T18:02:19.045Z,38.92
2022-08-18T18:04:32.783Z,35.08
2022-08-18T18:06:40.963Z,36.15
2022-08-18T18:08:53.349Z,38.85
2022-08-18T18:11:11.794Z,36.10
2022-08-18T18:13:23.594Z,37.57
2022-08-18T18:15:33.322Z,36.38
2022-08-18T18:17:39.497Z,38.58
2022-08-18T18:19:43.216Z,35.43
2022-08-18T18:22:03.426Z,36.35
2022-08-18T18:24:15.614Z,38.97
2022-08-18T18:26:26.264Z,38.60
2022-08-18T18:28:31.929Z,35.90
2022-08-18T18:30:34.841Z,37.47
2022-08-18T18:32:59.271Z,34.00
2022-08-18T18:35:12.538Z,34.42
2022-08-18T18:37:29.205Z,38.83
2022-08-18T18:39:35.819Z,37.00
2022-08-18T18:41:40.922Z,34.40
2022-08-18T18:43:46.783Z,35.60
2022-08-18T18:46:17.904Z,36.30
2022-08-18T18:48:45.019Z,36.10
2022-08-18T18:50:55.976Z,34.57
2022-08-18T18:53:14.120Z,36.70
2022-08-18T18:55:20.525Z,36.90
2022-08-18T18:57:36.285Z,34.77
2022-08-18T18:59:51.244Z,34.37
2022-08-18T19:02:01.280Z,35.20
2022-08-18T19:04:08.796Z,33.40
2022-08-18T19:06:28.447Z,35.10
2022-08-18T19:08:41.999Z,35.00
2022-08-18T19:10:56.259Z,35.73
2022-08-18T19:13:03.463Z,35.73
2022-08-18T19:15:14.575Z,35.87
2022-08-18T19:17:23.250Z,36.03
2022-08-18T19:19:37.238Z,35.03
2022-08-18T19:22:03.799Z,32.87
2022-08-18T19:24:16.005Z,35.73
2022-08-18T19:26:26.969Z,35.83
2022-08-18T19:28:35.235Z,33.87
2022-08-18T19:31:02.953Z,34.50
2022-08-18T19:33:07.476Z,33.47
2022-08-18T19:35:16.164Z,32.67
2022-08-18T19:37:30.988Z,32.07
2022-08-18T19:39:43.003Z,33.40
2022-08-18T19:41:50.746Z,33.07
2022-08-18T19:44:04.385Z,32.27
2022-08-18T19:46:16.178Z,31.37
2022-08-18T19:48:26.391Z,34.13
2022-08-18T19:50:35.228Z,32.37
2022-08-18T19:52:55.950Z,33.50
2022-08-18T19:55:15.093Z,33.07
2022-08-18T19:57:37.665Z,32.30
2022-08-18T20:00:10.190Z,33.33
2022-08-18T20:02:29.479Z,33.77
2022-08-18T20:04:46.689Z,30.77
2022-08-18T20:07:05.797Z,31.23
2022-08-18T20:09:48.677Z,29.17
2022-08-18T20:12:09.805Z,29.80
2022-08-18T20:14:17.093Z,27.40
2022-08-18T20:16:33.156Z,27.23
2022-08-18T20:18:48.955Z,27.07
2022-08-18T20:21:22.847Z,26.20
2022-08-18T20:23:34.106Z,23.83
2022-08-18T20:25:44.008Z,25.63
2022-08-18T20:27:51.433Z,25.33
2022-08-18T20:30:17.467Z,26.37
2022-08-18T20:32:28.960Z,24.87
2022-08-18T20:34:33.622Z,24.50
2022-08-18T20:36:37.764Z,24.17
2022-08-18T20:38:43.222Z,24.83
2022-08-18T20:40:48.681Z,23.33
2022-08-18T20:43:06.813Z,24.43
2022-08-18T20:45:13.884Z,23.27
2022-08-18T20:47:40.155Z,22.77
2022-08-18T20:49:58.280Z,22.10
2022-08-18T20:52:11.693Z,24.23
2022-08-18T20:54:30.650Z,22.50
2022-08-18T20:56:43.958Z,23.10
2022-08-18T20:58:57.329Z,22.83
2022-08-18T21:01:01.572Z,21.27
2022-08-18T21:03:08.697Z,20.43
2022-08-18T21:05:27.465Z,21.80
2022-08-18T21:07:36.971Z,22.20
2022-08-18T21:09:40.272Z,20.20
2022-08-18T21:11:46.546Z,21.37
2022-08-18T21:13:53.031Z,19.97
2022-08-18T21:15:55.986Z,20.73
2022-08-18T21:18:01.063Z,22.30
2022-08-18T21:20:07.901Z,20.87
2022-08-18T21:22:12.438Z,20.77
2022-08-18T21:24:23.385Z,22.73
2022-08-18T21:26:27.739Z,22.97
2022-08-18T21:28:34.879Z,22.07
2022-08-18T21:30:39.633Z,21.63
2022-08-18T21:32:43.429Z,20.67
2022-08-18T21:34:46.378Z,21.53
2022-08-18T21:36:52.254Z,22.23
2022-08-18T21:38:58.529Z,21.73
2022-08-18T21:41:14.782Z,21.50
2022-08-18T21:43:35.572Z,19.80
2022-08-18T21:45:53.040Z,20.63
2022-08-18T21:48:05.536Z,19.73
2022-08-18T21:50:12.641Z,20.03
2022-08-18T21:52:24.162Z,20.17
2022-08-18T21:54:35.509Z,19.43
2022-08-18T21:56:40.224Z,20.60
2022-08-18T21:58:45.388Z,20.60
2022-08-18T22:01:11.603Z,21.07
2022-08-18T22:03:21.565Z,20.43
2022-08-18T22:05:58.102Z,21.63
2022-08-18T22:07:54.182Z,20.70
2022-08-18T22:10:19.114Z,19.73
2022-08-18T22:12:45.121Z,20.53
2022-08-18T22:14:54.357Z,20.90
2022-08-18T22:17:34.987Z,19.37
2022-08-18T22:19:37.767Z,21.43
2022-08-18T22:21:46.428Z,20.20
2022-08-18T22:24:06.645Z,20.77
2022-08-18T22:26:12.399Z,21.63
2022-08-18T22:28:20.728Z,21.30
2022-08-18T22:30:23.466Z,22.63
2022-08-18T22:32:26.239Z,24.63
2022-08-18T22:34:34.320Z,22.80
2022-08-18T22:36:39.427Z,21.57
2022-08-18T22:38:42.587Z,21.23
2022-08-18T22:40:45.809Z,20.37
2022-08-18T22:42:48.552Z,19.13
2022-08-18T22:44:51.772Z,19.07
2022-08-18T22:46:54.510Z,19.87
2022-08-18T22:48:58.329Z,20.13
2022-08-18T22:51:02.454Z,18.20
2022-08-18T22:53:05.486Z,20.43
2022-08-18T22:55:11.098Z,21.60
2022-08-18T22:57:14.665Z,21.27
2022-08-18T22:59:20.421Z,20.37
2022-08-18T23:01:24.159Z,20.83
2022-08-18T23:03:27.604Z,21.00
2022-08-18T23:05:32.482Z,22.00
2022-08-18T23:07:36.919Z,21.83
2022-08-18T23:09:40.165Z,22.57
2022-08-18T23:11:41.982Z,22.10
2022-08-18T23:13:44.753Z,21.50
2022-08-18T23:15:48.248Z,21.77
2022-08-18T23:17:50.990Z,20.20
2022-08-18T23:19:53.720Z,21.43
2022-08-18T23:21:56.933Z,19.47
2022-08-18T23:24:00.982Z,21.63
2022-08-18T23:26:03.787Z,19.07
2022-08-18T23:28:10.562Z,18.13
2022-08-18T23:30:13.709Z,19.83
2022-08-18T23:32:16.860Z,18.83
2022-08-18T23:34:22.997Z,19.30
2022-08-18T23:36:25.725Z,18.67
2022-08-18T23:38:31.747Z,19.27
2022-08-18T23:40:37.181Z,18.40
2022-08-18T23:42:40.125Z,18.43
2022-08-18T23:44:43.359Z,18.50
2022-08-18T23:46:46.175Z,18.30
2022-08-18T23:48:50.650Z,20.00
2022-08-18T23:50:53.424Z,18.83
2022-08-18T23:52:57.997Z,19.83
2022-08-18T23:55:04.302Z,21.13
2022-08-18T23:57:08.487Z,21.27
2022-08-18T23:59:11.703Z,21.57
